createdAt,value
2019-03-26T00:01:20.033Z,21.53
2019-03-26T00:03:49.812Z,18.10
2019-03-26T00:06:19.620Z,19.87
2019-03-26T00:08:49.434Z,21.07
2019-03-26T00:11:19.202Z,14.70
2019-03-26T00:13:49.036Z,22.60
2019-03-26T00:16:18.888Z,20.70
2019-03-26T00:18:48.702Z,19.13
2019-03-26T00:21:18.513Z,22.50
2019-03-26T00:23:48.412Z,22.03
2019-03-26T00:26:18.175Z,18.90
2019-03-26T00:28:47.985Z,15.67
2019-03-26T00:31:17.773Z,17.00
2019-03-26T00:33:47.565Z,21.40
2019-03-26T00:36:17.384Z,17.70
2019-03-26T00:38:47.256Z,18.50
2019-03-26T00:41:17.115Z,23.03
2019-03-26T00:43:47.092Z,23.33
2019-03-26T00:46:16.864Z,17.60
2019-03-26T00:48:46.692Z,19.70
2019-03-26T00:51:16.452Z,20.77
2019-03-26T00:53:46.361Z,19.80
2019-03-26T00:56:16.131Z,28.57
2019-03-26T00:58:45.991Z,21.17
2019-03-26T01:01:15.785Z,20.03
2019-03-26T01:03:45.683Z,22.33
2019-03-26T01:06:15.460Z,22.87
2019-03-26T01:08:45.287Z,22.93
2019-03-26T01:11:15.179Z,16.17
2019-03-26T01:13:44.943Z,19.33
2019-03-26T01:16:15.392Z,17.93
2019-03-26T01:18:45.320Z,16.60
2019-03-26T01:21:15.136Z,20.87
2019-03-26T01:23:44.919Z,17.30
2019-03-26T01:26:14.680Z,16.77
2019-03-26T01:28:44.507Z,16.93
2019-03-26T01:31:14.372Z,21.67
2019-03-26T01:33:44.208Z,24.13
2019-03-26T01:36:14.443Z,21.03
2019-03-26T01:38:44.267Z,21.17
2019-03-26T01:41:14.043Z,18.07
2019-03-26T01:43:43.887Z,24.00
2019-03-26T01:46:13.626Z,18.47
2019-03-26T01:48:43.602Z,22.53
2019-03-26T01:51:13.391Z,23.47
2019-03-26T01:53:43.218Z,27.63
2019-03-26T01:56:13.032Z,19.40
2019-03-26T01:58:42.920Z,22.40
2019-03-26T02:01:12.663Z,19.20
2019-03-26T02:03:42.502Z,20.43
2019-03-26T02:06:12.281Z,22.37
2019-03-26T02:08:42.047Z,19.73
2019-03-26T02:11:11.855Z,18.93
2019-03-26T02:13:41.640Z,18.33
2019-03-26T02:16:11.527Z,24.17
2019-03-26T02:18:41.321Z,26.77
2019-03-26T02:21:11.109Z,17.20
2019-03-26T02:23:40.923Z,15.67
2019-03-26T02:26:10.727Z,19.27
2019-03-26T02:28:40.619Z,14.37
2019-03-26T02:31:10.475Z,14.23
2019-03-26T02:33:40.265Z,14.50
2019-03-26T02:36:10.124Z,18.33
2019-03-26T02:38:39.984Z,22.47
2019-03-26T02:41:09.748Z,21.70
2019-03-26T02:43:39.560Z,23.97
2019-03-26T02:46:09.480Z,23.37
2019-03-26T02:48:39.656Z,20.67
2019-03-26T02:51:09.432Z,21.80
2019-03-26T02:53:39.289Z,18.00
2019-03-26T02:56:09.099Z,25.03
2019-03-26T02:58:38.915Z,18.57
2019-03-26T03:01:08.701Z,23.10
2019-03-26T03:03:38.530Z,26.00
2019-03-26T03:06:08.418Z,25.67
2019-03-26T03:08:38.383Z,26.30
2019-03-26T03:11:08.204Z,25.00
2019-03-26T03:13:38.071Z,24.47
2019-03-26T03:16:07.930Z,22.33
2019-03-26T03:18:37.740Z,31.47
2019-03-26T03:21:07.627Z,25.20
2019-03-26T03:23:37.435Z,22.77
2019-03-26T03:26:07.226Z,25.17
2019-03-26T03:28:37.043Z,28.23
2019-03-26T03:31:06.864Z,22.67
2019-03-26T03:33:36.698Z,28.10
2019-03-26T03:36:06.453Z,27.10
2019-03-26T03:38:36.270Z,26.10
2019-03-26T03:41:06.076Z,28.60
2019-03-26T03:43:35.921Z,30.43
2019-03-26T03:46:05.829Z,23.37
2019-03-26T03:48:36.460Z,22.00
2019-03-26T03:51:07.354Z,25.37
2019-03-26T03:53:37.273Z,23.73
2019-03-26T03:56:08.085Z,23.37
2019-03-26T03:58:39.514Z,22.60
2019-03-26T04:01:09.355Z,22.30
2019-03-26T04:03:39.143Z,21.80
2019-03-26T04:06:10.229Z,23.33
2019-03-26T04:08:40.155Z,24.33
2019-03-26T04:11:10.208Z,29.30
2019-03-26T04:13:39.945Z,18.77
2019-03-26T04:16:09.774Z,27.80
2019-03-26T04:18:39.572Z,25.07
2019-03-26T04:21:09.368Z,25.77
2019-03-26T04:23:39.175Z,21.80
2019-03-26T04:26:09.056Z,62.17
2019-03-26T04:28:38.863Z,31.53
2019-03-26T04:31:08.639Z,27.43
2019-03-26T04:33:39.368Z,28.80
2019-03-26T04:36:24.489Z,26.87
2019-03-26T04:38:40.627Z,20.70
2019-03-26T04:41:10.480Z,22.27
2019-03-26T04:43:40.295Z,21.57
2019-03-26T04:46:10.111Z,20.63
2019-03-26T04:48:39.914Z,22.33
2019-03-26T04:51:09.687Z,25.30
2019-03-26T04:53:39.422Z,28.10
2019-03-26T04:56:09.246Z,21.00
2019-03-26T04:58:39.079Z,20.93
2019-03-26T05:01:08.910Z,23.23
2019-03-26T05:03:38.688Z,25.00
2019-03-26T05:06:08.499Z,20.93
2019-03-26T05:08:38.286Z,26.50
2019-03-26T05:11:08.094Z,23.67
2019-03-26T05:13:37.870Z,17.57
2019-03-26T05:16:07.671Z,17.07
2019-03-26T05:18:39.262Z,21.10
2019-03-26T05:21:09.097Z,21.37
2019-03-26T05:23:38.981Z,23.27
2019-03-26T05:26:08.761Z,24.37
2019-03-26T05:28:38.624Z,17.13
2019-03-26T05:31:08.423Z,22.20
2019-03-26T05:33:38.329Z,29.20
2019-03-26T05:36:08.133Z,20.73
2019-03-26T05:38:37.929Z,19.07
2019-03-26T05:41:10.383Z,18.87
2019-03-26T05:43:39.221Z,22.23
2019-03-26T05:46:09.040Z,22.90
2019-03-26T05:48:38.897Z,23.83
2019-03-26T05:51:09.317Z,23.87
2019-03-26T05:53:39.121Z,39.70
2019-03-26T05:56:08.917Z,28.83
2019-03-26T05:58:38.726Z,26.50
2019-03-26T06:01:08.625Z,22.87
2019-03-26T06:03:38.437Z,25.83
2019-03-26T06:06:08.232Z,26.87
2019-03-26T06:08:38.057Z,27.40
2019-03-26T06:11:07.941Z,26.57
2019-03-26T06:13:37.785Z,26.53
2019-03-26T06:16:07.565Z,28.33
2019-03-26T06:18:37.353Z,29.93
2019-03-26T06:21:07.352Z,28.87
2019-03-26T06:23:37.169Z,24.93
2019-03-26T06:26:07.064Z,22.97
2019-03-26T06:28:36.852Z,24.87
2019-03-26T06:31:06.637Z,25.47
2019-03-26T06:33:36.449Z,27.67
2019-03-26T06:36:06.229Z,26.80
2019-03-26T06:38:36.130Z,29.23
2019-03-26T06:41:06.152Z,27.37
2019-03-26T06:43:35.944Z,26.87
2019-03-26T06:46:05.759Z,24.10
2019-03-26T06:48:35.580Z,29.50
2019-03-26T06:51:05.407Z,28.87
2019-03-26T06:53:35.300Z,27.00
2019-03-26T06:56:05.131Z,34.03
2019-03-26T06:58:34.961Z,31.53
2019-03-26T07:01:05.545Z,28.50
2019-03-26T07:03:35.428Z,29.47
2019-03-26T07:06:05.228Z,29.23
2019-03-26T07:08:35.047Z,29.97
2019-03-26T07:11:04.759Z,35.83
2019-03-26T07:13:34.540Z,31.83
2019-03-26T07:16:04.646Z,29.13
2019-03-26T07:18:34.424Z,27.70
2019-03-26T07:21:04.247Z,27.70
2019-03-26T07:23:34.083Z,26.03
2019-03-26T07:26:03.891Z,23.53
2019-03-26T07:28:33.691Z,25.63
2019-03-26T07:31:03.591Z,27.57
2019-03-26T07:33:33.461Z,26.17
2019-03-26T07:36:03.355Z,27.70
2019-03-26T07:38:33.140Z,30.20
2019-03-26T07:41:02.970Z,28.27
2019-03-26T07:43:32.863Z,23.97
2019-03-26T07:46:02.675Z,26.40
2019-03-26T07:48:32.486Z,30.87
2019-03-26T07:51:02.224Z,32.40
2019-03-26T07:53:32.027Z,27.87
2019-03-26T07:56:01.835Z,28.33
2019-03-26T07:58:33.204Z,25.53
2019-03-26T08:01:03.290Z,29.93
2019-03-26T08:03:33.116Z,27.13
2019-03-26T08:06:03.167Z,27.23
2019-03-26T08:08:33.102Z,23.30
2019-03-26T08:11:02.898Z,26.37
2019-03-26T08:13:32.667Z,26.50
2019-03-26T08:16:02.519Z,31.40
2019-03-26T08:18:32.315Z,27.63
2019-03-26T08:21:02.122Z,21.63
2019-03-26T08:23:31.962Z,23.93
2019-03-26T08:26:01.754Z,21.63
2019-03-26T08:28:31.551Z,20.97
2019-03-26T08:31:01.369Z,32.20
2019-03-26T08:33:31.462Z,21.70
2019-03-26T08:36:01.353Z,24.23
2019-03-26T08:38:33.536Z,32.53
2019-03-26T08:41:02.678Z,22.97
2019-03-26T08:43:32.382Z,22.70
2019-03-26T08:46:02.145Z,24.63
2019-03-26T08:48:31.994Z,23.03
2019-03-26T08:51:01.806Z,24.30
2019-03-26T08:53:31.570Z,16.40
2019-03-26T08:56:01.387Z,16.17
2019-03-26T08:58:31.150Z,18.20
2019-03-26T09:01:00.986Z,19.57
2019-03-26T09:03:30.894Z,11.40
2019-03-26T09:06:00.685Z,16.50
2019-03-26T09:08:30.892Z,14.87
2019-03-26T09:11:00.659Z,12.90
2019-03-26T09:13:30.480Z,11.43
2019-03-26T09:16:00.270Z,12.17
2019-03-26T09:18:30.114Z,12.93
2019-03-26T09:21:00.026Z,9.63
2019-03-26T09:23:29.987Z,15.53
2019-03-26T09:25:59.818Z,15.00
2019-03-26T09:28:29.618Z,18.00
2019-03-26T09:30:59.451Z,11.97
2019-03-26T09:33:29.430Z,17.20
2019-03-26T09:35:59.258Z,15.03
2019-03-26T09:38:38.732Z,14.93
2019-03-26T09:41:00.497Z,14.00
2019-03-26T09:43:30.305Z,16.60
2019-03-26T09:46:00.321Z,13.83
2019-03-26T09:48:30.297Z,13.27
2019-03-26T09:51:00.054Z,18.73
2019-03-26T09:53:29.857Z,13.20
2019-03-26T09:56:00.193Z,11.43
2019-03-26T09:58:30.014Z,9.57
2019-03-26T10:00:59.838Z,13.37
2019-03-26T10:03:29.678Z,10.10
2019-03-26T10:05:59.465Z,12.83
2019-03-26T10:08:29.257Z,13.40
2019-03-26T10:10:59.175Z,14.87
2019-03-26T10:13:29.065Z,12.87
2019-03-26T10:15:58.961Z,13.00
2019-03-26T10:18:28.781Z,12.80
2019-03-26T10:20:58.608Z,11.07
2019-03-26T10:23:28.433Z,7.23
2019-03-26T10:25:58.247Z,13.53
2019-03-26T10:28:28.062Z,15.00
2019-03-26T10:30:57.849Z,9.30
2019-03-26T10:33:27.697Z,11.30
2019-03-26T10:35:57.469Z,11.20
2019-03-26T10:38:27.294Z,11.13
2019-03-26T10:40:57.349Z,11.93
2019-03-26T10:43:27.209Z,14.67
2019-03-26T10:45:57.005Z,8.87
2019-03-26T10:48:26.832Z,15.97
2019-03-26T10:50:56.649Z,14.07
2019-03-26T10:53:26.513Z,10.73
2019-03-26T10:55:56.380Z,10.90
2019-03-26T10:58:26.233Z,14.07
2019-03-26T11:00:56.069Z,10.20
2019-03-26T11:03:26.224Z,10.67
2019-03-26T11:05:56.088Z,11.80
2019-03-26T11:08:25.884Z,14.23
2019-03-26T11:10:55.745Z,12.83
2019-03-26T11:13:26.513Z,12.00
2019-03-26T11:15:56.416Z,10.50
2019-03-26T11:18:26.332Z,13.40
2019-03-26T11:21:02.832Z,10.63
2019-03-26T11:23:27.704Z,8.03
2019-03-26T11:25:57.588Z,11.30
2019-03-26T11:28:27.501Z,10.83
2019-03-26T11:31:02.060Z,7.70
2019-03-26T11:33:31.876Z,8.47
2019-03-26T11:36:01.672Z,10.40
2019-03-26T11:38:31.600Z,11.43
2019-03-26T11:41:01.432Z,11.03
2019-03-26T11:43:31.337Z,5.43
2019-03-26T11:46:01.228Z,6.07
2019-03-26T11:48:31.040Z,7.70
2019-03-26T11:51:00.868Z,3.53
2019-03-26T11:53:30.696Z,4.37
2019-03-26T11:56:00.492Z,9.20
2019-03-26T11:58:31.070Z,3.63
2019-03-26T12:01:01.071Z,4.63
2019-03-26T12:03:30.860Z,7.07
2019-03-26T12:06:00.719Z,9.13
2019-03-26T12:08:30.575Z,6.97
2019-03-26T12:11:00.400Z,3.80
2019-03-26T12:13:30.275Z,3.67
2019-03-26T12:16:00.068Z,3.10
2019-03-26T12:18:29.899Z,8.17
2019-03-26T12:20:59.684Z,4.20
2019-03-26T12:23:29.511Z,6.93
2019-03-26T12:25:59.343Z,4.20
2019-03-26T12:28:29.115Z,4.77
2019-03-26T12:30:58.979Z,4.53
2019-03-26T12:33:28.784Z,4.83
2019-03-26T12:35:58.623Z,5.70
2019-03-26T12:38:28.443Z,5.10
2019-03-26T12:40:58.376Z,5.27
2019-03-26T12:43:28.358Z,3.63
2019-03-26T12:45:58.163Z,6.40
2019-03-26T12:48:27.971Z,5.10
2019-03-26T12:50:57.822Z,8.27
2019-03-26T12:53:27.635Z,4.47
2019-03-26T12:55:57.427Z,7.90
2019-03-26T12:58:32.615Z,4.23
2019-03-26T13:00:59.240Z,6.63
2019-03-26T13:03:29.090Z,8.17
2019-03-26T13:05:58.978Z,4.03
2019-03-26T13:08:28.806Z,5.60
2019-03-26T13:10:58.670Z,8.57
2019-03-26T13:13:28.487Z,4.67
2019-03-26T13:15:58.294Z,7.37
2019-03-26T13:18:28.110Z,3.50
2019-03-26T13:20:57.938Z,10.17
2019-03-26T13:23:27.774Z,2.37
2019-03-26T13:25:57.562Z,7.77
2019-03-26T13:28:27.368Z,4.03
2019-03-26T13:30:57.194Z,3.50
2019-03-26T13:33:26.978Z,6.17
2019-03-26T13:35:56.837Z,4.03
2019-03-26T13:38:26.742Z,6.90
2019-03-26T13:40:56.597Z,7.23
2019-03-26T13:43:26.490Z,3.10
2019-03-26T13:45:56.393Z,4.90
2019-03-26T13:48:26.251Z,5.53
2019-03-26T13:50:56.097Z,4.03
2019-03-26T13:53:25.975Z,6.00
2019-03-26T13:55:55.761Z,3.63
2019-03-26T13:58:25.589Z,3.93
2019-03-26T14:00:55.385Z,3.80
2019-03-26T14:03:25.222Z,2.83
2019-03-26T14:05:55.004Z,3.73
2019-03-26T14:08:25.973Z,2.27
2019-03-26T14:10:55.765Z,6.63
2019-03-26T14:13:25.557Z,6.47
2019-03-26T14:15:55.428Z,4.73
2019-03-26T14:18:25.301Z,4.37
2019-03-26T14:20:55.033Z,5.17
2019-03-26T14:23:24.905Z,5.90
2019-03-26T14:25:54.790Z,10.63
2019-03-26T14:28:24.633Z,5.70
2019-03-26T14:30:54.438Z,3.53
2019-03-26T14:33:24.284Z,12.90
2019-03-26T14:35:54.088Z,9.40
2019-03-26T14:38:23.937Z,9.03
2019-03-26T14:40:55.598Z,4.63
2019-03-26T14:43:25.614Z,2.37
2019-03-26T14:45:55.483Z,6.03
2019-03-26T14:48:25.418Z,3.03
2019-03-26T14:50:56.436Z,4.87
2019-03-26T14:53:26.256Z,9.97
2019-03-26T14:55:56.121Z,4.03
2019-03-26T14:58:26.019Z,8.00
2019-03-26T15:00:55.855Z,3.63
2019-03-26T15:03:25.668Z,5.37
2019-03-26T15:05:55.706Z,6.87
2019-03-26T15:08:25.595Z,8.10
2019-03-26T15:11:07.437Z,4.50
2019-03-26T15:13:27.223Z,4.20
2019-03-26T15:15:57.234Z,6.40
2019-03-26T15:18:28.595Z,7.37
2019-03-26T15:20:58.414Z,6.80
2019-03-26T15:23:28.333Z,5.07
2019-03-26T15:25:58.126Z,8.00
2019-03-26T15:28:27.974Z,8.00
2019-03-26T15:30:57.830Z,7.57
2019-03-26T15:33:27.645Z,6.23
2019-03-26T15:35:57.558Z,8.33
2019-03-26T15:38:27.553Z,5.43
2019-03-26T15:40:57.448Z,10.80
2019-03-26T15:43:27.434Z,5.10
2019-03-26T15:45:57.322Z,4.47
2019-03-26T15:48:27.238Z,5.60
2019-03-26T15:50:57.073Z,2.93
2019-03-26T15:53:26.904Z,2.80
2019-03-26T15:55:56.801Z,3.27
2019-03-26T15:58:26.616Z,6.30
2019-03-26T16:00:56.446Z,5.70
2019-03-26T16:03:26.398Z,9.53
2019-03-26T16:05:56.292Z,6.07
2019-03-26T16:08:26.131Z,2.83
2019-03-26T16:10:56.272Z,5.60
2019-03-26T16:13:26.161Z,5.40
2019-03-26T16:15:55.890Z,7.53
2019-03-26T16:18:25.781Z,5.57
2019-03-26T16:20:55.658Z,7.73
2019-03-26T16:23:25.524Z,8.27
2019-03-26T16:25:55.365Z,4.87
2019-03-26T16:28:25.205Z,3.93
2019-03-26T16:30:55.141Z,9.33
2019-03-26T16:33:25.015Z,10.63
2019-03-26T16:35:54.797Z,7.30
2019-03-26T16:38:24.599Z,12.13
2019-03-26T16:40:54.520Z,12.43
2019-03-26T16:43:24.390Z,8.50
2019-03-26T16:45:54.403Z,11.07
2019-03-26T16:48:24.261Z,16.80
2019-03-26T16:50:54.221Z,15.87
2019-03-26T16:53:24.049Z,7.70
2019-03-26T16:55:53.901Z,10.67
2019-03-26T16:58:23.797Z,13.67
2019-03-26T17:00:53.619Z,8.73
2019-03-26T17:03:31.248Z,7.73
2019-03-26T17:05:54.982Z,7.47
2019-03-26T17:08:24.829Z,10.00
2019-03-26T17:10:54.747Z,13.47
2019-03-26T17:13:24.548Z,19.17
2019-03-26T17:15:54.497Z,30.60
2019-03-26T17:18:24.285Z,10.50
2019-03-26T17:20:54.216Z,9.47
2019-03-26T17:23:24.024Z,11.13
2019-03-26T17:25:53.816Z,8.87
2019-03-26T17:28:23.697Z,6.73
2019-03-26T17:30:53.528Z,5.83
2019-03-26T17:33:23.365Z,3.37
2019-03-26T17:35:53.297Z,5.43
2019-03-26T17:38:23.065Z,6.80
2019-03-26T17:40:52.865Z,6.20
2019-03-26T17:43:22.721Z,10.57
2019-03-26T17:45:52.531Z,23.57
2019-03-26T17:48:22.473Z,33.80
2019-03-26T17:50:52.366Z,9.90
2019-03-26T17:53:22.218Z,9.73
2019-03-26T17:55:52.189Z,4.37
2019-03-26T17:58:22.129Z,7.43
2019-03-26T18:00:52.054Z,7.03
2019-03-26T18:03:26.573Z,6.00
2019-03-26T18:05:53.677Z,7.07
2019-03-26T18:08:23.514Z,7.80
2019-03-26T18:10:53.326Z,39.80
2019-03-26T18:13:23.199Z,31.83
2019-03-26T18:15:53.055Z,23.57
2019-03-26T18:18:22.858Z,13.67
2019-03-26T18:20:52.667Z,9.63
2019-03-26T18:23:22.491Z,7.40
2019-03-26T18:25:52.442Z,6.97
2019-03-26T18:28:22.390Z,11.20
2019-03-26T18:30:52.226Z,15.60
2019-03-26T18:33:22.133Z,10.07
2019-03-26T18:35:52.010Z,9.33
2019-03-26T18:38:21.815Z,10.73
2019-03-26T18:40:51.756Z,10.87
2019-03-26T18:43:21.638Z,8.90
2019-03-26T18:45:51.494Z,18.23
2019-03-26T18:48:21.377Z,12.17
2019-03-26T18:50:51.130Z,16.73
2019-03-26T18:53:20.994Z,21.03
2019-03-26T18:55:51.154Z,18.63
2019-03-26T18:58:21.158Z,8.47
2019-03-26T19:00:51.053Z,11.50
2019-03-26T19:03:21.254Z,9.23
2019-03-26T19:05:51.077Z,22.57
2019-03-26T19:08:20.974Z,24.07
2019-03-26T19:10:50.814Z,26.13
2019-03-26T19:13:20.602Z,19.50
2019-03-26T19:15:50.826Z,21.03
2019-03-26T19:18:20.649Z,12.60
2019-03-26T19:21:01.568Z,17.80
2019-03-26T19:23:22.326Z,22.10
2019-03-26T19:25:52.113Z,22.17
2019-03-26T19:28:21.933Z,16.70
2019-03-26T19:30:51.749Z,12.50
2019-03-26T19:33:21.553Z,10.37
2019-03-26T19:35:51.394Z,11.40
2019-03-26T19:38:21.206Z,11.70
2019-03-26T19:40:51.293Z,9.33
2019-03-26T19:43:21.134Z,5.37
2019-03-26T19:45:50.945Z,7.43
2019-03-26T19:48:20.752Z,6.47
2019-03-26T19:50:50.525Z,9.30
2019-03-26T19:53:21.481Z,7.27
2019-03-26T19:55:51.369Z,8.43
2019-03-26T19:58:21.241Z,6.50
2019-03-26T20:00:51.018Z,8.50
2019-03-26T20:03:21.001Z,5.83
2019-03-26T20:05:51.602Z,8.77
2019-03-26T20:08:21.423Z,5.50
2019-03-26T20:10:51.218Z,6.63
2019-03-26T20:13:24.599Z,5.90
2019-03-26T20:15:52.495Z,8.73
2019-03-26T20:18:22.322Z,9.17
2019-03-26T20:20:52.103Z,7.13
2019-03-26T20:23:22.039Z,8.00
2019-03-26T20:25:51.907Z,8.67
2019-03-26T20:28:21.699Z,8.07
2019-03-26T20:30:51.511Z,10.47
2019-03-26T20:33:21.353Z,10.00
2019-03-26T20:35:51.187Z,19.10
2019-03-26T20:38:21.063Z,15.17
2019-03-26T20:40:50.855Z,14.87
2019-03-26T20:43:20.822Z,9.10
2019-03-26T20:45:50.711Z,8.90
2019-03-26T20:48:20.582Z,15.27
2019-03-26T20:50:50.394Z,9.13
2019-03-26T20:53:20.226Z,7.93
2019-03-26T20:55:54.569Z,8.17
2019-03-26T20:58:21.723Z,11.87
2019-03-26T21:00:51.611Z,9.83
2019-03-26T21:03:21.490Z,20.93
2019-03-26T21:05:51.434Z,33.70
2019-03-26T21:08:21.506Z,50.27
2019-03-26T21:10:51.313Z,36.30
2019-03-26T21:13:21.305Z,24.13
2019-03-26T21:15:57.071Z,32.63
2019-03-26T21:18:22.635Z,30.13
2019-03-26T21:20:52.430Z,24.73
2019-03-26T21:23:22.306Z,35.67
2019-03-26T21:25:52.155Z,30.93
2019-03-26T21:28:21.968Z,18.30
2019-03-26T21:30:51.766Z,25.33
2019-03-26T21:33:21.586Z,26.70
2019-03-26T21:35:51.294Z,27.57
2019-03-26T21:38:21.142Z,23.33
2019-03-26T21:40:50.926Z,16.57
2019-03-26T21:43:20.924Z,19.97
2019-03-26T21:45:50.710Z,16.20
2019-03-26T21:48:20.653Z,14.07
2019-03-26T21:50:50.502Z,26.37
2019-03-26T21:53:20.374Z,26.13
2019-03-26T21:55:50.213Z,24.77
2019-03-26T21:58:20.078Z,24.13
2019-03-26T22:00:49.901Z,23.70
2019-03-26T22:03:19.709Z,20.80
2019-03-26T22:05:49.614Z,19.13
2019-03-26T22:08:19.517Z,31.13
2019-03-26T22:10:49.357Z,29.97
2019-03-26T22:13:19.131Z,37.30
2019-03-26T22:15:48.945Z,38.40
2019-03-26T22:18:18.725Z,56.80
2019-03-26T22:20:48.520Z,38.60
2019-03-26T22:23:18.385Z,59.43
2019-03-26T22:25:48.252Z,63.67
2019-03-26T22:28:18.019Z,50.90
2019-03-26T22:30:47.831Z,66.53
2019-03-26T22:33:17.629Z,49.97
2019-03-26T22:35:47.476Z,29.97
2019-03-26T22:38:17.277Z,30.10
2019-03-26T22:40:47.140Z,46.40
2019-03-26T22:43:16.935Z,57.00
2019-03-26T22:45:46.722Z,42.83
2019-03-26T22:48:16.548Z,39.50
2019-03-26T22:50:46.342Z,33.23
2019-03-26T22:53:16.180Z,29.10
2019-03-26T22:55:46.020Z,45.77
2019-03-26T22:58:15.885Z,47.47
2019-03-26T23:00:46.135Z,37.23
2019-03-26T23:03:15.996Z,32.23
2019-03-26T23:05:45.872Z,39.60
2019-03-26T23:08:15.652Z,42.57
2019-03-26T23:10:45.464Z,44.87
2019-03-26T23:13:15.373Z,55.00
2019-03-26T23:15:45.253Z,59.17
2019-03-26T23:18:15.068Z,60.50
2019-03-26T23:20:44.958Z,57.80
2019-03-26T23:23:14.804Z,48.20
2019-03-26T23:25:44.596Z,46.20
2019-03-26T23:28:14.475Z,45.60
2019-03-26T23:30:44.406Z,49.50
2019-03-26T23:33:14.227Z,46.13
2019-03-26T23:35:44.116Z,40.70
2019-03-26T23:38:13.934Z,59.00
2019-03-26T23:40:43.946Z,71.10
2019-03-26T23:43:13.740Z,65.87
2019-03-26T23:45:43.653Z,70.77
2019-03-26T23:48:13.495Z,66.60
2019-03-26T23:50:43.360Z,68.83
2019-03-26T23:53:13.187Z,82.93
2019-03-26T23:55:43.007Z,53.60
2019-03-26T23:58:12.836Z,60.40
